Time;durP1;ratioP1;P1;durP2;ratioP2;P2;SDS_P1;SDS_P2;PMS_P1;PMS_P2;Temp;Humidity;BMP_temperature;BMP_pressure;BME280_temperature;BME280_humidity;BME280_pressure;Samples;Min_cycle;Max_cycle;Signal;HPM_P1;HPM_P2
2021/11/02 00:00:26;;;;;;;0.50;0.50;;;8.20;99.90;;;;;;5038602;28;20196;-80
2021/11/02 00:02:52;;;;;;;0.50;0.40;;;8.20;99.90;;;;;;5039320;28;20192;-82
2021/11/02 00:05:19;;;;;;;0.50;0.40;;;8.30;99.90;;;;;;5039630;28;20215;-80
2021/11/02 00:07:47;;;;;;;0.50;0.40;;;8.30;99.90;;;;;;5039539;28;20581;-81
2021/11/02 00:10:14;;;;;;;0.50;0.50;;;8.40;99.90;;;;;;5038404;28;20212;-81
2021/11/02 00:12:42;;;;;;;0.50;0.40;;;8.40;99.90;;;;;;5038445;28;20196;-82
2021/11/02 00:15:10;;;;;;;0.50;0.40;;;8.30;99.90;;;;;;5038705;28;20220;-80
2021/11/02 00:17:38;;;;;;;0.50;0.40;;;8.30;99.90;;;;;;5039932;28;20199;-82
2021/11/02 00:20:11;;;;;;;0.50;0.40;;;8.30;99.90;;;;;;5039433;28;20195;-76
2021/11/02 00:22:38;;;;;;;0.77;0.77;;;8.20;99.90;;;;;;5038429;28;20282;-82
2021/11/02 00:25:07;;;;;;;0.50;0.40;;;8.20;99.90;;;;;;5039286;28;20247;-82
2021/11/02 00:27:37;;;;;;;0.50;0.40;;;8.10;99.90;;;;;;5038926;28;20561;-81
2021/11/02 00:30:08;;;;;;;0.50;0.40;;;8.10;99.90;;;;;;5021069;28;20212;-80
2021/11/02 00:32:35;;;;;;;0.50;0.40;;;8.00;99.90;;;;;;5038340;28;20576;-83
2021/11/02 00:35:02;;;;;;;0.50;0.40;;;7.90;99.90;;;;;;5038594;28;20221;-80
2021/11/02 00:37:29;;;;;;;0.50;0.40;;;7.80;99.90;;;;;;5038107;28;20707;-80
2021/11/02 00:39:56;;;;;;;0.50;0.40;;;7.90;99.90;;;;;;5038896;28;20216;-82
2021/11/02 00:42:27;;;;;;;0.50;0.50;;;7.80;99.90;;;;;;5039074;28;20195;-82
2021/11/02 00:44:56;;;;;;;0.50;0.40;;;7.70;99.90;;;;;;5038252;28;20259;-80
2021/11/02 00:47:27;;;;;;;0.50;0.40;;;7.70;99.90;;;;;;5037889;28;20195;-82
2021/11/02 00:49:54;;;;;;;0.50;0.40;;;7.70;99.90;;;;;;5038423;28;20216;-81
2021/11/02 00:52:21;;;;;;;0.50;0.40;;;7.60;99.90;;;;;;5038585;28;20204;-82
2021/11/02 00:54:48;;;;;;;0.50;0.40;;;7.70;99.90;;;;;;5038845;28;20302;-82
2021/11/02 00:57:15;;;;;;;0.50;0.40;;;7.70;99.90;;;;;;5038288;28;20203;-80
2021/11/02 00:59:43;;;;;;;0.60;0.60;;;7.70;99.90;;;;;;5038695;28;20221;-82
2021/11/02 01:02:10;;;;;;;0.50;0.40;;;7.60;99.90;;;;;;5038356;28;20227;-81
2021/11/02 01:04:38;;;;;;;0.50;0.40;;;7.60;99.90;;;;;;5037802;28;20238;-81
2021/11/02 01:07:05;;;;;;;0.60;0.60;;;7.60;99.90;;;;;;5037964;28;20542;-81
2021/11/02 01:09:32;;;;;;;2.15;1.05;;;7.70;99.90;;;;;;5037961;28;20582;-80
2021/11/02 01:11:59;;;;;;;0.50;0.40;;;7.70;99.90;;;;;;5037746;28;20674;-81
2021/11/02 01:14:26;;;;;;;0.50;0.40;;;7.80;99.90;;;;;;5037995;28;20200;-81
2021/11/02 01:16:53;;;;;;;0.50;0.40;;;7.80;99.90;;;;;;5038441;28;20203;-79
2021/11/02 01:19:19;;;;;;;0.50;0.40;;;7.80;99.90;;;;;;5037908;28;20542;-81
2021/11/02 01:21:47;;;;;;;0.50;0.40;;;7.80;99.90;;;;;;5037971;28;20199;-83
2021/11/02 01:24:14;;;;;;;0.98;0.90;;;7.70;99.90;;;;;;5037583;28;20211;-81
2021/11/02 01:26:41;;;;;;;0.50;0.40;;;7.70;99.90;;;;;;5038240;28;20199;-82
2021/11/02 01:29:08;;;;;;;0.50;0.40;;;7.70;99.90;;;;;;5038370;28;20212;-81
2021/11/02 01:31:35;;;;;;;0.50;0.40;;;7.70;99.90;;;;;;5037639;28;20200;-82
2021/11/02 01:34:02;;;;;;;0.50;0.40;;;7.60;99.90;;;;;;5037832;28;20282;-80
2021/11/02 01:36:29;;;;;;;0.50;0.40;;;7.60;99.90;;;;;;5037853;28;20330;-82
2021/11/02 01:38:57;;;;;;;0.50;0.40;;;7.60;99.90;;;;;;5037015;28;20616;-81
2021/11/02 01:41:26;;;;;;;0.50;0.40;;;7.60;99.90;;;;;;5037390;28;20195;-79
2021/11/02 01:43:53;;;;;;;0.50;0.40;;;7.50;99.90;;;;;;5037863;28;20223;-82
2021/11/02 01:46:25;;;;;;;0.50;0.40;;;7.50;99.90;;;;;;5037746;28;20227;-82
2021/11/02 01:48:53;;;;;;;0.50;0.40;;;7.40;99.90;;;;;;5037829;28;20203;-82
2021/11/02 01:51:22;;;;;;;0.50;0.40;;;7.40;99.90;;;;;;5036869;28;20224;-81
2021/11/02 01:53:49;;;;;;;0.50;0.40;;;7.40;99.90;;;;;;5037336;28;20204;-82
2021/11/02 01:56:18;;;;;;;0.50;0.40;;;7.50;99.90;;;;;;5036389;28;20269;-79
2021/11/02 01:58:47;;;;;;;0.50;0.40;;;7.50;99.90;;;;;;5037473;28;20204;-82
2021/11/02 02:01:20;;;;;;;0.50;0.40;;;7.50;99.90;;;;;;5037011;28;20196;-81
2021/11/02 02:03:54;;;;;;;0.50;0.40;;;7.60;99.90;;;;;;5037027;28;20227;-82
2021/11/02 02:06:35;;;;;;;0.50;0.40;;;7.60;99.90;;;;;;5036779;28;20222;-82
2021/11/02 02:09:08;;;;;;;0.50;0.40;;;7.70;99.90;;;;;;5037004;28;20285;-83
2021/11/02 02:11:47;;;;;;;0.50;0.40;;;7.80;99.90;;;;;;5037289;28;20208;-82
2021/11/02 02:14:18;;;;;;;0.50;0.40;;;7.80;99.90;;;;;;5036324;28;20200;-79
2021/11/02 02:16:47;;;;;;;0.70;0.50;;;7.80;99.90;;;;;;5036841;28;20214;-80
2021/11/02 02:19:40;;;;;;;0.50;0.40;;;7.90;99.90;;;;;;5036728;28;20202;-82
2021/11/02 02:22:34;;;;;;;0.50;0.50;;;7.90;99.90;;;;;;5036332;28;20205;-80
2021/11/02 02:25:30;;;;;;;0.50;0.40;;;7.80;99.90;;;;;;5036807;28;20219;-81
2021/11/02 02:28:13;;;;;;;0.50;0.40;;;7.90;99.90;;;;;;5036688;28;20760;-80
2021/11/02 02:30:45;;;;;;;0.50;0.40;;;7.90;99.90;;;;;;5037027;28;20216;-78
2021/11/02 02:33:12;;;;;;;0.50;0.40;;;7.90;99.90;;;;;;5036580;28;20188;-82
2021/11/02 02:35:41;;;;;;;0.50;0.40;;;7.90;99.90;;;;;;5036520;28;20234;-80
2021/11/02 02:38:10;;;;;;;0.50;0.40;;;7.90;99.90;;;;;;5036327;28;20199;-81
2021/11/02 02:40:38;;;;;;;0.50;0.40;;;7.90;99.90;;;;;;5036155;28;20195;-82
2021/11/02 02:43:06;;;;;;;0.50;0.40;;;7.90;99.90;;;;;;5036235;28;20203;-81
2021/11/02 02:45:35;;;;;;;0.50;0.40;;;7.80;99.90;;;;;;5036530;28;20223;-81
2021/11/02 02:48:04;;;;;;;0.50;0.40;;;7.70;99.90;;;;;;5036209;28;20199;-81
2021/11/02 02:50:31;;;;;;;0.50;0.40;;;7.70;99.90;;;;;;5035998;28;20443;-81
2021/11/02 02:53:01;;;;;;;0.50;0.40;;;7.70;99.90;;;;;;5036390;28;20223;-82
2021/11/02 02:55:31;;;;;;;0.50;0.40;;;7.60;99.90;;;;;;5036989;28;20256;-81
2021/11/02 02:57:59;;;;;;;1.13;1.13;;;7.60;99.90;;;;;;5035738;28;20222;-81
2021/11/02 03:00:26;;;;;;;0.50;0.40;;;7.50;99.90;;;;;;5036353;28;20219;-82
2021/11/02 03:02:56;;;;;;;0.50;0.40;;;7.50;99.90;;;;;;5043940;28;20227;-80
2021/11/02 03:05:26;;;;;;;5.07;1.58;;;7.50;99.90;;;;;;5042849;28;20226;-79
2021/11/02 03:07:54;;;;;;;2.15;1.95;;;7.50;99.90;;;;;;5043178;28;20560;-80
2021/11/02 03:10:23;;;;;;;0.50;0.40;;;7.50;99.90;;;;;;5043471;28;20263;-81
2021/11/02 03:12:51;;;;;;;0.50;0.40;;;7.40;99.90;;;;;;5036904;28;20195;-82
2021/11/02 03:18:41;;;;;;;0.50;0.40;;;7.50;99.90;;;;;;5110262;27;1255896;-81
2021/11/02 03:43:58;;;;;;;0.50;0.40;;;7.20;99.90;;;;;;5022404;28;20211;-76
2021/11/02 03:49:15;;;;;;;0.50;0.40;;;7.20;99.90;;;;;;5048506;28;20289;-76
2021/11/02 03:54:43;;;;;;;0.50;0.40;;;7.00;99.90;;;;;;5047093;28;20757;-76
2021/11/02 03:57:18;;;;;;;0.50;0.40;;;7.00;99.90;;;;;;5047888;28;20302;-76
2021/11/02 04:28:04;;;;;;;0.50;0.40;;;6.90;99.90;;;;;;5029168;28;20717;-77
2021/11/02 04:33:41;;;;;;;0.50;0.40;;;6.80;99.90;;;;;;5033254;28;20248;-75
2021/11/02 04:47:33;;;;;;;0.50;0.40;;;6.90;99.90;;;;;;5032929;28;20180;-76
2021/11/02 05:48:44;;;;;;;0.60;0.60;;;6.70;99.90;;;;;;5032794;28;20214;-75
2021/11/02 05:54:07;;;;;;;0.50;0.40;;;6.80;99.90;;;;;;5029537;28;20199;-75
2021/11/02 05:56:36;;;;;;;0.50;0.40;;;6.80;99.90;;;;;;5032713;28;20201;-75
2021/11/02 05:59:14;;;;;;;0.50;0.40;;;6.80;99.90;;;;;;5032614;28;20647;-76
2021/11/02 06:01:52;;;;;;;0.88;0.77;;;6.80;99.90;;;;;;5032205;28;20222;-74
2021/11/02 06:04:37;;;;;;;0.50;0.40;;;6.80;99.90;;;;;;5032560;28;20299;-73
2021/11/02 06:07:27;;;;;;;1.23;1.17;;;6.90;99.90;;;;;;5032763;28;20543;-75
2021/11/02 06:10:02;;;;;;;0.50;0.40;;;6.90;99.90;;;;;;5032717;28;20183;-74
2021/11/02 06:29:29;;;;;;;0.50;0.40;;;6.90;99.90;;;;;;5031999;28;20175;-73
2021/11/02 06:32:00;;;;;;;0.50;0.40;;;6.90;99.90;;;;;;5031493;28;20222;-76
2021/11/02 06:34:36;;;;;;;0.50;0.40;;;7.00;99.90;;;;;;5031281;28;20243;-77
2021/11/02 06:40:17;;;;;;;0.50;0.40;;;7.00;99.90;;;;;;5128676;27;20525;-75
2021/11/02 06:51:28;;;;;;;0.50;0.40;;;7.20;99.90;;;;;;5124874;27;20184;-75
2021/11/02 06:54:10;;;;;;;0.50;0.40;;;7.30;99.90;;;;;;5129002;27;20212;-75
2021/11/02 06:59:57;;;;;;;1.02;0.93;;;7.50;99.90;;;;;;5106663;27;20221;-75
2021/11/02 07:17:10;;;;;;;0.50;0.40;;;7.70;99.90;;;;;;5109674;28;20258;-75
2021/11/02 07:19:42;;;;;;;0.50;0.40;;;7.80;99.90;;;;;;5121100;28;20682;-73
2021/11/02 07:22:22;;;;;;;1.25;1.08;;;7.90;99.90;;;;;;5128754;27;20209;-75
2021/11/02 07:25:04;;;;;;;0.50;0.40;;;7.90;99.90;;;;;;5128742;27;20252;-75
2021/11/02 07:27:50;;;;;;;0.50;0.40;;;8.00;99.90;;;;;;5128867;27;20280;-75
2021/11/02 08:45:53;;;;;;;0.50;0.40;;;13.70;99.90;;;;;;5113651;28;20407;-76
2021/11/02 08:48:20;;;;;;;0.50;0.40;;;12.70;99.90;;;;;;5113426;28;20811;-76
2021/11/02 08:50:51;;;;;;;0.50;0.40;;;11.80;99.90;;;;;;5113208;28;20249;-76
2021/11/02 08:53:21;;;;;;;0.50;0.40;;;11.40;99.90;;;;;;5113271;28;20216;-75
2021/11/02 08:55:49;;;;;;;0.50;0.40;;;11.10;99.90;;;;;;5112871;28;20206;-76
2021/11/02 08:58:18;;;;;;;0.50;0.40;;;10.60;99.90;;;;;;5113252;28;20212;-78
2021/11/02 09:00:45;;;;;;;0.50;0.40;;;10.60;99.90;;;;;;5112765;28;20203;-76
2021/11/02 09:03:16;;;;;;;0.60;0.55;;;10.50;99.90;;;;;;5111738;28;20218;-76
2021/11/02 09:05:45;;;;;;;0.50;0.40;;;10.70;99.90;;;;;;5113081;28;20203;-76
2021/11/02 09:08:12;;;;;;;0.50;0.40;;;10.50;99.90;;;;;;5113463;28;20198;-76
2021/11/02 09:10:42;;;;;;;1.40;1.30;;;10.40;99.90;;;;;;5112738;28;20200;-76
2021/11/02 09:13:10;;;;;;;0.85;0.85;;;10.30;99.90;;;;;;5112874;28;20218;-77
2021/11/02 09:15:38;;;;;;;0.60;0.60;;;10.30;99.90;;;;;;5112616;28;20199;-76
2021/11/02 09:18:07;;;;;;;0.50;0.40;;;10.40;99.90;;;;;;5112911;28;20191;-78
2021/11/02 09:20:34;;;;;;;0.70;0.60;;;10.40;99.90;;;;;;5112274;28;20199;-76
2021/11/02 09:23:01;;;;;;;1.83;0.65;;;10.50;99.90;;;;;;5114392;28;20228;-76
2021/11/02 09:25:28;;;;;;;0.50;0.40;;;10.40;99.90;;;;;;5113208;28;20572;-76
2021/11/02 09:27:56;;;;;;;0.50;0.40;;;10.40;99.90;;;;;;5112494;28;20200;-76
2021/11/02 09:30:25;;;;;;;0.50;0.40;;;10.50;99.90;;;;;;5112035;28;20195;-76
2021/11/02 09:32:54;;;;;;;6.68;2.35;;;10.50;99.90;;;;;;5112794;27;20223;-77
2021/11/02 09:35:23;;;;;;;0.50;0.40;;;10.60;99.90;;;;;;5112463;28;20200;-76
2021/11/02 09:37:59;;;;;;;0.52;0.47;;;10.50;99.90;;;;;;5112543;28;20206;-75
2021/11/02 09:40:55;;;;;;;0.50;0.40;;;10.50;99.90;;;;;;5112099;28;20245;-76
2021/11/02 09:44:07;;;;;;;0.60;0.40;;;10.30;99.90;;;;;;5111900;28;20723;-77
2021/11/02 09:46:59;;;;;;;0.50;0.40;;;10.30;99.90;;;;;;5100435;28;20192;-76
2021/11/02 09:49:58;;;;;;;0.50;0.40;;;10.60;99.90;;;;;;5112297;28;20199;-76
2021/11/02 09:52:58;;;;;;;0.60;0.60;;;10.80;99.90;;;;;;5111494;28;20227;-76
2021/11/02 09:55:53;;;;;;;0.50;0.40;;;10.90;99.90;;;;;;5111312;28;20554;-75
2021/11/02 09:58:38;;;;;;;0.50;0.40;;;10.90;99.90;;;;;;5104383;28;20203;-76
2021/11/02 10:01:13;;;;;;;0.60;0.60;;;11.10;99.90;;;;;;5111916;28;20656;-75
2021/11/02 10:04:26;;;;;;;0.50;0.40;;;11.10;99.90;;;;;;5112031;28;20225;-74
2021/11/02 10:07:21;;;;;;;0.50;0.40;;;10.70;99.90;;;;;;5111034;28;20639;-76
2021/11/02 10:09:57;;;;;;;0.50;0.40;;;10.30;99.90;;;;;;5111815;28;20224;-74
2021/11/02 10:12:27;;;;;;;0.50;0.40;;;10.00;99.90;;;;;;5111785;28;20291;-76
2021/11/02 10:15:06;;;;;;;0.50;0.40;;;9.80;99.90;;;;;;5111940;28;20217;-76
2021/11/02 10:18:11;;;;;;;5.45;2.08;;;9.60;99.90;;;;;;5111339;28;20192;-76
2021/11/02 10:21:07;;;;;;;0.57;0.57;;;9.40;99.90;;;;;;5111380;28;20197;-76
2021/11/02 10:23:53;;;;;;;0.50;0.40;;;9.30;99.90;;;;;;5111522;28;20233;-76
2021/11/02 10:26:27;;;;;;;0.60;0.57;;;9.30;99.90;;;;;;5112293;28;20194;-76
2021/11/02 10:29:36;;;;;;;0.50;0.40;;;9.40;99.90;;;;;;5111990;28;20191;-76
2021/11/02 10:32:06;;;;;;;0.80;0.60;;;9.30;99.90;;;;;;5111592;28;20663;-76
2021/11/02 10:34:41;;;;;;;0.50;0.40;;;9.40;99.90;;;;;;5112004;28;20617;-75
2021/11/02 10:37:23;;;;;;;0.70;0.50;;;9.30;99.90;;;;;;5112066;28;20183;-76
2021/11/02 10:40:06;;;;;;;0.50;0.40;;;9.20;99.90;;;;;;5111577;28;20222;-75
2021/11/02 10:42:46;;;;;;;0.50;0.40;;;9.20;99.90;;;;;;5110011;28;20725;-75
2021/11/02 10:45:17;;;;;;;0.50;0.50;;;9.30;99.90;;;;;;5103565;28;20189;-76
2021/11/02 10:47:57;;;;;;;0.50;0.40;;;9.30;99.90;;;;;;5111805;28;20220;-75
2021/11/02 10:50:28;;;;;;;0.50;0.45;;;9.30;99.90;;;;;;5111471;28;20198;-76
2021/11/02 10:52:58;;;;;;;0.50;0.40;;;9.40;99.90;;;;;;5111262;28;20225;-76
2021/11/02 10:55:32;;;;;;;0.50;0.40;;;9.30;99.90;;;;;;5110921;28;20198;-74
2021/11/02 10:58:26;;;;;;;0.85;0.80;;;9.40;99.90;;;;;;5111631;28;20255;-77
2021/11/02 11:00:53;;;;;;;0.60;0.60;;;9.50;99.90;;;;;;5111642;28;20210;-76
2021/11/02 11:03:27;;;;;;;0.50;0.40;;;9.70;99.90;;;;;;5111337;28;20689;-73
2021/11/02 11:05:57;;;;;;;0.60;0.60;;;9.80;99.90;;;;;;5111670;28;20202;-76
2021/11/02 11:08:28;;;;;;;0.50;0.50;;;10.00;99.90;;;;;;5111652;28;20197;-77
2021/11/02 11:10:57;;;;;;;0.50;0.40;;;10.10;99.90;;;;;;5111037;28;20187;-76
2021/11/02 11:13:27;;;;;;;0.50;0.40;;;10.40;99.90;;;;;;5111230;28;20219;-76
2021/11/02 11:15:59;;;;;;;0.50;0.40;;;10.50;99.90;;;;;;5111196;28;20283;-76
2021/11/02 11:18:33;;;;;;;0.50;0.40;;;10.60;99.90;;;;;;5111451;28;20180;-76
2021/11/02 11:21:02;;;;;;;0.50;0.40;;;10.60;99.90;;;;;;5111343;28;20232;-76
2021/11/02 11:23:34;;;;;;;1.55;1.50;;;10.70;99.90;;;;;;5111287;28;20242;-76
2021/11/02 11:26:06;;;;;;;0.50;0.40;;;10.60;99.90;;;;;;5113913;28;20207;-76
2021/11/02 11:28:36;;;;;;;0.50;0.40;;;10.70;99.90;;;;;;5115005;28;20195;-76
2021/11/02 11:31:04;;;;;;;0.50;0.40;;;10.90;99.90;;;;;;5115161;28;20507;-76
2021/11/02 11:33:32;;;;;;;0.95;0.95;;;10.90;99.90;;;;;;5115234;27;20216;-76
2021/11/02 11:36:03;;;;;;;0.50;0.47;;;10.80;99.90;;;;;;5114862;28;20206;-75
2021/11/02 11:38:36;;;;;;;0.50;0.40;;;10.80;99.90;;;;;;5115015;28;20211;-76
2021/11/02 11:41:04;;;;;;;0.50;0.50;;;10.80;99.90;;;;;;5114624;28;20208;-76
2021/11/02 11:43:32;;;;;;;1.23;1.02;;;10.80;99.90;;;;;;5114467;28;20222;-75
2021/11/02 11:46:01;;;;;;;0.65;0.65;;;10.70;99.90;;;;;;5114980;28;20191;-75
2021/11/02 11:48:28;;;;;;;0.50;0.40;;;10.60;99.90;;;;;;5114726;28;20210;-72
2021/11/02 11:50:57;;;;;;;0.50;0.40;;;10.40;99.90;;;;;;5114358;28;20675;-76
2021/11/02 11:53:26;;;;;;;0.75;0.75;;;10.30;99.90;;;;;;5114218;28;20223;-75
2021/11/02 11:56:04;;;;;;;0.50;0.40;;;10.30;99.90;;;;;;5114519;28;20207;-74
2021/11/02 11:58:31;;;;;;;0.50;0.40;;;10.30;99.90;;;;;;5114586;28;20199;-75
2021/11/02 12:01:07;;;;;;;0.50;0.40;;;10.50;99.90;;;;;;5113965;28;20220;-74
2021/11/02 12:03:47;;;;;;;0.60;0.40;;;10.70;99.90;;;;;;5114478;28;20222;-75
2021/11/02 12:06:20;;;;;;;0.50;0.40;;;10.90;99.90;;;;;;5114549;28;20180;-76
2021/11/02 12:09:00;;;;;;;0.50;0.45;;;10.80;99.90;;;;;;5114595;27;20182;-76
2021/11/02 12:11:31;;;;;;;0.50;0.40;;;10.70;99.90;;;;;;5114336;28;20665;-76
2021/11/02 12:14:07;;;;;;;0.50;0.40;;;10.60;99.90;;;;;;5113956;27;20185;-76
2021/11/02 12:16:39;;;;;;;0.50;0.50;;;10.60;99.90;;;;;;5114127;27;20780;-76
2021/11/02 12:19:14;;;;;;;0.50;0.40;;;10.70;99.90;;;;;;5114480;28;20202;-76
2021/11/02 12:21:48;;;;;;;0.50;0.40;;;10.80;99.90;;;;;;5114115;27;20214;-76
2021/11/02 12:24:16;;;;;;;0.50;0.40;;;10.80;99.90;;;;;;5113961;28;20265;-76
2021/11/02 12:26:45;;;;;;;0.50;0.40;;;10.70;99.90;;;;;;5114200;28;20202;-76
2021/11/02 12:29:17;;;;;;;1.40;0.77;;;10.60;99.90;;;;;;5113891;28;20198;-75
2021/11/02 12:31:45;;;;;;;0.50;0.40;;;10.60;99.90;;;;;;5113565;28;20215;-76
2021/11/02 12:34:14;;;;;;;0.50;0.40;;;10.70;99.90;;;;;;5114200;28;20193;-76
2021/11/02 12:36:48;;;;;;;0.50;0.40;;;10.80;99.90;;;;;;5113208;28;20199;-76
2021/11/02 12:39:20;;;;;;;0.50;0.40;;;10.90;99.90;;;;;;5113314;28;20207;-76
2021/11/02 12:41:53;;;;;;;0.50;0.40;;;11.00;99.90;;;;;;5113747;28;20220;-76
2021/11/02 12:44:25;;;;;;;0.50;0.40;;;11.00;99.90;;;;;;5113665;28;20200;-76
2021/11/02 12:46:53;;;;;;;0.50;0.40;;;11.00;99.90;;;;;;5114134;28;20200;-76
2021/11/02 12:49:25;;;;;;;0.50;0.40;;;11.00;99.90;;;;;;5113846;28;20207;-76
2021/11/02 12:51:57;;;;;;;0.50;0.40;;;10.90;99.90;;;;;;5113728;28;20228;-76
2021/11/02 12:54:27;;;;;;;0.50;0.40;;;10.80;99.90;;;;;;5113564;27;20235;-74
2021/11/02 12:56:58;;;;;;;0.50;0.40;;;10.80;99.90;;;;;;5112803;28;20200;-75
2021/11/02 12:59:34;;;;;;;0.50;0.40;;;10.90;99.90;;;;;;5113328;28;20203;-76
2021/11/02 13:02:16;;;;;;;0.50;0.40;;;11.10;99.90;;;;;;5112773;28;20233;-76
2021/11/02 13:04:44;;;;;;;0.50;0.40;;;11.10;99.90;;;;;;5113567;28;20203;-76
2021/11/02 13:07:12;;;;;;;0.50;0.40;;;11.20;99.90;;;;;;5113748;28;20469;-75
2021/11/02 13:09:41;;;;;;;0.73;0.73;;;11.50;99.90;;;;;;5113575;28;20434;-76
2021/11/02 13:12:10;;;;;;;0.50;0.40;;;11.60;99.90;;;;;;5113169;28;20693;-76
2021/11/02 13:14:38;;;;;;;0.50;0.40;;;11.90;99.90;;;;;;5113582;28;20200;-76
2021/11/02 13:17:09;;;;;;;0.50;0.40;;;12.00;99.90;;;;;;5113418;28;20195;-76
2021/11/02 13:19:38;;;;;;;0.50;0.40;;;12.40;99.90;;;;;;5113161;28;20458;-77
2021/11/02 13:22:13;;;;;;;0.50;0.40;;;12.70;99.90;;;;;;5112953;28;20465;-76
2021/11/02 13:24:54;;;;;;;0.50;0.40;;;12.70;99.90;;;;;;5112885;28;20430;-76
2021/11/02 13:27:30;;;;;;;0.50;0.40;;;12.40;99.90;;;;;;5113414;28;20419;-76
2021/11/02 13:29:57;;;;;;;0.60;0.50;;;12.70;99.90;;;;;;5112872;28;20415;-76
2021/11/02 13:32:23;;;;;;;0.50;0.40;;;13.20;99.90;;;;;;5112416;28;20469;-75
2021/11/02 13:34:50;;;;;;;0.50;0.40;;;13.40;99.90;;;;;;5112827;28;20443;-75
2021/11/02 13:37:18;;;;;;;0.50;0.40;;;13.30;99.90;;;;;;5112578;28;20439;-76
2021/11/02 13:39:54;;;;;;;0.50;0.30;;;13.20;99.90;;;;;;5112169;28;20930;-77
2021/11/02 13:42:44;;;;;;;0.77;0.67;;;13.30;99.90;;;;;;5112580;28;20553;-74
2021/11/02 13:45:15;;;;;;;1.87;1.33;;;13.10;99.90;;;;;;5112889;28;20415;-77
2021/11/02 13:47:43;;;;;;;0.50;0.40;;;13.00;99.90;;;;;;5111923;28;20503;-76
2021/11/02 13:50:11;;;;;;;0.50;0.40;;;12.90;99.90;;;;;;5111865;28;20431;-77
2021/11/02 13:52:40;;;;;;;0.50;0.40;;;12.70;99.90;;;;;;5112415;28;20462;-77
2021/11/02 13:55:10;;;;;;;0.50;0.40;;;12.40;99.90;;;;;;5112149;28;20808;-77
2021/11/02 13:57:37;;;;;;;0.60;0.43;;;12.30;99.90;;;;;;5112457;28;20439;-76
2021/11/02 14:00:05;;;;;;;0.50;0.40;;;12.10;99.90;;;;;;5112190;28;20820;-76
2021/11/02 14:02:33;;;;;;;0.50;0.40;;;11.80;99.90;;;;;;5106649;28;20235;-76
2021/11/02 14:05:01;;;;;;;0.70;0.50;;;11.40;99.90;;;;;;5098696;28;20200;-76
2021/11/02 14:07:31;;;;;;;1.65;0.82;;;11.30;99.90;;;;;;5112355;28;20447;-73
2021/11/02 14:10:02;;;;;;;0.50;0.40;;;11.20;99.90;;;;;;5111803;28;20200;-75
2021/11/02 14:12:32;;;;;;;0.50;0.40;;;11.10;99.90;;;;;;5111571;28;20719;-77
2021/11/02 14:15:20;;;;;;;0.50;0.40;;;11.10;99.90;;;;;;5112406;28;20206;-76
2021/11/02 14:18:08;;;;;;;0.50;0.40;;;11.00;99.90;;;;;;5111668;28;20215;-77
2021/11/02 14:20:37;;;;;;;0.50;0.40;;;10.90;99.90;;;;;;5107908;28;20690;-76
2021/11/02 14:23:05;;;;;;;0.50;0.40;;;10.90;99.90;;;;;;5091563;28;20224;-76
2021/11/02 14:25:34;;;;;;;0.50;0.40;;;10.80;99.90;;;;;;5091914;28;20208;-76
2021/11/02 14:28:02;;;;;;;0.50;0.40;;;10.80;99.90;;;;;;5091151;28;20193;-76
2021/11/02 14:30:40;;;;;;;0.50;0.40;;;10.80;99.90;;;;;;5091067;28;20189;-77
2021/11/02 14:33:08;;;;;;;0.50;0.40;;;10.70;99.90;;;;;;5091773;28;20244;-77
2021/11/02 14:35:52;;;;;;;0.50;0.40;;;10.60;99.90;;;;;;5091532;28;20619;-77
2021/11/02 14:38:20;;;;;;;0.50;0.40;;;10.60;99.90;;;;;;5091154;28;20197;-76
2021/11/02 14:40:49;;;;;;;0.50;0.40;;;10.50;99.90;;;;;;5090837;28;20661;-76
2021/11/02 14:43:31;;;;;;;0.50;0.40;;;10.50;99.90;;;;;;5091333;28;20602;-76
2021/11/02 14:46:03;;;;;;;0.50;0.40;;;10.50;99.90;;;;;;5091408;28;20228;-77
2021/11/02 14:48:38;;;;;;;0.50;0.40;;;10.60;99.90;;;;;;5091642;28;20175;-75
2021/11/02 14:51:07;;;;;;;0.50;0.40;;;10.60;99.90;;;;;;5090722;28;20626;-75
2021/11/02 14:53:36;;;;;;;0.70;0.63;;;10.60;99.90;;;;;;5091030;28;20708;-76
2021/11/02 14:56:05;;;;;;;0.80;0.70;;;10.60;99.90;;;;;;5110713;28;20221;-77
2021/11/02 14:58:47;;;;;;;0.50;0.40;;;10.70;99.90;;;;;;5111388;28;20608;-77
2021/11/02 15:01:15;;;;;;;0.50;0.40;;;10.70;99.90;;;;;;5113814;28;20223;-77
2021/11/02 15:03:43;;;;;;;0.50;0.40;;;10.60;99.90;;;;;;5115125;28;20219;-77
2021/11/02 15:06:12;;;;;;;0.50;0.40;;;10.60;99.90;;;;;;5116448;28;20214;-77
2021/11/02 15:08:41;;;;;;;0.50;0.40;;;10.50;99.90;;;;;;5115729;28;20565;-76
2021/11/02 15:11:11;;;;;;;0.60;0.60;;;10.50;99.90;;;;;;5115547;28;20198;-76
2021/11/02 15:13:40;;;;;;;0.50;0.40;;;10.50;99.90;;;;;;5115374;28;20227;-75
2021/11/02 15:16:08;;;;;;;0.50;0.40;;;10.40;99.90;;;;;;5115194;28;20217;-76
2021/11/02 15:18:42;;;;;;;0.60;0.50;;;10.30;99.90;;;;;;5115187;28;20199;-77
2021/11/02 15:21:09;;;;;;;0.50;0.50;;;10.30;99.90;;;;;;5115447;28;20215;-77
2021/11/02 15:23:41;;;;;;;0.50;0.40;;;10.20;99.90;;;;;;5116157;28;20212;-77
2021/11/02 15:26:09;;;;;;;0.57;0.57;;;10.30;99.90;;;;;;5115156;28;20183;-77
2021/11/02 15:28:41;;;;;;;0.50;0.40;;;10.20;99.90;;;;;;5114722;28;20217;-76
2021/11/02 15:31:09;;;;;;;0.77;0.77;;;10.10;99.90;;;;;;5114998;28;20620;-76
2021/11/02 15:33:39;;;;;;;0.50;0.40;;;10.10;99.90;;;;;;5114975;28;20219;-76
2021/11/02 15:36:19;;;;;;;0.50;0.50;;;10.10;99.90;;;;;;5114973;28;20260;-77
2021/11/02 15:38:57;;;;;;;0.80;0.50;;;10.10;99.90;;;;;;5114202;27;20259;-77
2021/11/02 15:41:26;;;;;;;0.50;0.40;;;10.10;99.90;;;;;;5114694;28;20219;-76
2021/11/02 15:43:55;;;;;;;0.50;0.40;;;10.00;99.90;;;;;;5114989;28;20242;-76
2021/11/02 15:46:36;;;;;;;0.50;0.40;;;10.00;99.90;;;;;;5115025;27;20196;-77
2021/11/02 15:49:05;;;;;;;0.50;0.40;;;9.90;99.90;;;;;;5104946;28;20199;-77
2021/11/02 15:51:34;;;;;;;0.60;0.57;;;9.90;99.90;;;;;;5111626;28;20197;-76
2021/11/02 15:54:07;;;;;;;0.50;0.40;;;9.90;99.90;;;;;;5114849;28;20196;-77
2021/11/02 15:56:34;;;;;;;0.50;0.40;;;9.70;99.90;;;;;;5114000;28;20189;-76
2021/11/02 15:59:03;;;;;;;0.50;0.40;;;9.70;99.90;;;;;;5115046;28;20191;-77
2021/11/02 16:01:39;;;;;;;0.50;0.40;;;9.60;99.90;;;;;;5114083;28;20584;-76
2021/11/02 16:04:15;;;;;;;0.50;0.40;;;9.50;99.90;;;;;;5114346;28;20259;-75
2021/11/02 16:07:02;;;;;;;0.60;0.50;;;9.40;99.90;;;;;;5105191;28;20523;-77
2021/11/02 16:09:48;;;;;;;0.50;0.40;;;9.20;99.90;;;;;;5093870;28;20198;-77
2021/11/02 16:12:35;;;;;;;1.40;0.50;;;9.10;99.90;;;;;;5093066;28;20216;-76
2021/11/02 16:15:10;;;;;;;0.50;0.40;;;9.00;99.90;;;;;;5100594;28;20204;-77
2021/11/02 16:17:43;;;;;;;0.50;0.40;;;8.90;99.90;;;;;;5114377;28;20240;-78
2021/11/02 16:20:16;;;;;;;0.50;0.40;;;8.80;99.90;;;;;;5112452;27;20193;-76
2021/11/02 16:22:49;;;;;;;0.70;0.70;;;8.80;99.90;;;;;;5114235;28;20506;-77
2021/11/02 16:25:16;;;;;;;0.50;0.40;;;8.80;99.90;;;;;;5114985;28;20570;-77
2021/11/02 16:27:53;;;;;;;0.50;0.40;;;8.70;99.90;;;;;;5114327;28;20205;-78
2021/11/02 16:30:22;;;;;;;0.50;0.40;;;8.70;99.90;;;;;;5113623;28;20192;-77
2021/11/02 16:32:54;;;;;;;0.50;0.40;;;8.70;99.90;;;;;;5113971;28;20749;-78
2021/11/02 16:35:39;;;;;;;1.25;1.10;;;8.70;99.90;;;;;;5113867;28;20285;-77
2021/11/02 16:38:28;;;;;;;0.50;0.40;;;8.70;99.90;;;;;;5119730;27;20201;-77
2021/11/02 16:40:58;;;;;;;0.50;0.40;;;8.60;99.90;;;;;;5092720;28;20211;-78
2021/11/02 16:43:31;;;;;;;0.50;0.40;;;8.60;99.90;;;;;;5093326;28;20582;-76
2021/11/02 16:45:58;;;;;;;0.50;0.40;;;8.60;99.90;;;;;;5093611;28;20206;-77
2021/11/02 16:48:36;;;;;;;0.50;0.40;;;8.60;99.90;;;;;;5093436;28;20198;-76
2021/11/02 16:51:03;;;;;;;0.60;0.55;;;8.60;99.90;;;;;;5093381;28;20202;-77
2021/11/02 16:53:30;;;;;;;0.80;0.50;;;8.60;99.90;;;;;;5093199;28;20235;-77
2021/11/02 16:56:02;;;;;;;0.50;0.40;;;8.60;99.90;;;;;;5093273;28;20198;-77
2021/11/02 16:58:34;;;;;;;0.50;0.40;;;8.60;99.90;;;;;;5093271;28;20221;-77
2021/11/02 17:01:25;;;;;;;0.50;0.40;;;8.60;99.90;;;;;;5092584;28;20207;-76
2021/11/02 17:03:55;;;;;;;0.50;0.40;;;8.70;99.90;;;;;;5092884;28;20650;-76
2021/11/02 17:06:24;;;;;;;0.50;0.40;;;8.70;99.90;;;;;;5093262;28;20191;-77
2021/11/02 17:09:08;;;;;;;0.50;0.50;;;8.70;99.90;;;;;;5091273;28;20200;-75
2021/11/02 17:11:49;;;;;;;0.50;0.40;;;8.70;99.90;;;;;;5094449;28;20538;-76
2021/11/02 17:14:17;;;;;;;1.85;1.73;;;8.70;99.90;;;;;;5092812;28;20185;-77
2021/11/02 17:16:50;;;;;;;0.70;0.68;;;8.70;99.90;;;;;;5108344;28;20192;-77
2021/11/02 17:19:19;;;;;;;0.60;0.50;;;8.60;99.90;;;;;;5104409;28;20208;-76
2021/11/02 17:21:49;;;;;;;0.50;0.50;;;8.60;99.90;;;;;;5111239;28;20221;-77
2021/11/02 17:24:17;;;;;;;0.50;0.40;;;8.60;99.90;;;;;;5110503;28;20209;-76
2021/11/02 17:26:44;;;;;;;0.95;0.95;;;8.60;99.90;;;;;;5113346;28;20553;-76
2021/11/02 17:29:11;;;;;;;1.20;1.20;;;8.60;99.90;;;;;;5113343;28;20542;-77
2021/11/02 17:31:39;;;;;;;0.50;0.40;;;8.50;99.90;;;;;;5112488;28;20193;-76
2021/11/02 17:34:07;;;;;;;1.77;1.58;;;8.50;99.90;;;;;;5112771;28;20685;-76
2021/11/02 17:36:36;;;;;;;0.55;0.52;;;8.40;99.90;;;;;;5112998;28;20547;-76
2021/11/02 17:39:04;;;;;;;1.30;1.00;;;8.30;99.90;;;;;;5112842;28;20205;-77